Time;durP1;ratioP1;P1;durP2;ratioP2;P2;SDS_P1;SDS_P2;PMS_P1;PMS_P2;Temp;Humidity;BMP_temperature;BMP_pressure;BME280_temperature;BME280_humidity;BME280_pressure;Samples;Min_cycle;Max_cycle;Signal;HPM_P1;HPM_P2
2022/04/05 00:00:38;;;;;;;32.67;14.27;;;;;;;9.15;100.00;100497.63;4998274;28;20061;-80
2022/04/05 00:03:04;;;;;;;31.60;13.40;;;;;;;9.16;100.00;100505.47;5003793;28;20239;-80
2022/04/05 00:05:30;;;;;;;29.30;13.77;;;;;;;9.13;100.00;100509.72;5000978;28;20018;-80
2022/04/05 00:07:55;;;;;;;33.88;14.35;;;;;;;9.14;100.00;100512.38;4991927;28;20292;-80
2022/04/05 00:10:21;;;;;;;31.40;13.73;;;;;;;9.12;100.00;100510.56;4992914;28;20394;-80
2022/04/05 00:12:47;;;;;;;29.02;13.43;;;;;;;9.12;100.00;100507.97;4992363;28;20324;-80
2022/04/05 00:15:12;;;;;;;30.15;13.77;;;;;;;9.13;100.00;100509.72;4996602;28;20026;-80
2022/04/05 00:17:38;;;;;;;30.05;13.50;;;;;;;9.11;100.00;100506.19;4996512;28;20023;-80
2022/04/05 00:20:04;;;;;;;30.40;12.57;;;;;;;9.12;100.00;100515.75;5000627;28;20316;-80
2022/04/05 00:22:30;;;;;;;37.80;13.82;;;;;;;9.10;100.00;100515.72;4998861;28;20026;-81
2022/04/05 00:24:55;;;;;;;32.28;13.30;;;;;;;9.09;100.00;100513.97;4997279;28;20064;-80
2022/04/05 00:27:21;;;;;;;32.15;12.48;;;;;;;9.09;100.00;100513.97;4994482;28;20072;-81
2022/04/05 00:29:46;;;;;;;27.77;12.32;;;;;;;9.09;100.00;100513.97;4995745;28;20098;-81
2022/04/05 00:32:12;;;;;;;29.60;12.48;;;;;;;9.08;100.00;100517.44;4995536;28;20022;-80
2022/04/05 00:34:38;;;;;;;28.00;12.23;;;;;;;9.07;100.00;100514.75;4990466;28;20069;-82
2022/04/05 00:37:03;;;;;;;25.08;11.57;;;;;;;9.07;100.00;100517.34;5000858;28;20010;-81
2022/04/05 00:39:29;;;;;;;31.42;12.95;;;;;;;9.06;100.00;100516.50;4987065;28;20022;-81
2022/04/05 00:41:55;;;;;;;28.90;12.40;;;;;;;9.06;100.00;100516.50;4993222;28;20025;-81
2022/04/05 00:44:20;;;;;;;28.17;12.25;;;;;;;9.05;100.00;100515.63;4992946;28;20418;-80
2022/04/05 00:46:45;;;;;;;25.75;11.95;;;;;;;9.05;100.00;100518.22;4995749;28;20014;-81
2022/04/05 00:49:26;;;;;;;30.27;12.13;;;;;;;9.04;100.00;100519.06;4995610;28;20041;-81
2022/04/05 00:51:51;;;;;;;26.92;12.48;;;;;;;9.04;100.00;100511.25;4993988;28;20172;-81
2022/04/05 00:54:17;;;;;;;26.67;11.88;;;;;;;9.02;100.00;100512.97;4994612;28;20014;-81
2022/04/05 00:56:44;;;;;;;27.75;12.18;;;;;;;9.02;100.00;100525.06;4995877;28;20089;-80
2022/04/05 00:59:10;;;;;;;28.48;13.05;;;;;;;9.00;100.00;100525.00;4994477;28;20121;-81
2022/04/05 01:01:37;;;;;;;27.50;12.38;;;;;;;9.01;100.00;100518.97;4996045;28;20033;-81
2022/04/05 01:04:03;;;;;;;24.90;11.60;;;;;;;9.02;100.00;100522.44;4999397;28;20022;-81
2022/04/05 01:06:37;;;;;;;27.10;12.15;;;;;;;9.00;100.00;100518.94;5000067;28;20216;-81
2022/04/05 01:09:03;;;;;;;25.95;11.63;;;;;;;9.00;100.00;100518.94;4989073;28;20040;-80
2022/04/05 01:11:29;;;;;;;31.48;12.15;;;;;;;9.01;100.00;100520.72;4993465;28;20096;-81
2022/04/05 01:13:54;;;;;;;28.02;11.60;;;;;;;9.01;100.00;100518.13;4999245;28;20050;-81
2022/04/05 01:16:20;;;;;;;30.58;13.23;;;;;;;9.00;100.00;100524.16;5000600;28;20018;-77
2022/04/05 01:18:46;;;;;;;26.08;12.75;;;;;;;8.99;100.00;100518.09;4996989;28;20030;-77
2022/04/05 01:21:11;;;;;;;32.90;12.95;;;;;;;8.99;100.00;100518.09;4992713;28;20283;-77
2022/04/05 01:23:36;;;;;;;29.83;13.05;;;;;;;9.00;100.00;100524.16;4994550;28;20022;-76
2022/04/05 01:26:02;;;;;;;28.65;12.80;;;;;;;8.98;100.00;100531.00;4996199;28;20084;-77
2022/04/05 01:28:28;;;;;;;31.80;13.52;;;;;;;8.99;100.00;100530.19;4997044;28;20121;-77
2022/04/05 01:30:53;;;;;;;32.10;13.88;;;;;;;8.97;100.00;100529.28;4998635;28;20022;-77
2022/04/05 01:33:19;;;;;;;32.13;14.27;;;;;;;8.97;100.00;100534.47;4989843;28;20026;-77
2022/04/05 01:35:45;;;;;;;28.20;13.77;;;;;;;8.95;100.00;100526.63;4992219;28;20090;-78
2022/04/05 01:38:11;;;;;;;31.40;13.93;;;;;;;8.95;100.00;100530.94;4996477;28;20018;-77
2022/04/05 01:40:36;;;;;;;26.75;13.32;;;;;;;8.95;100.00;100530.94;4993891;28;20086;-77
2022/04/05 01:43:02;;;;;;;29.45;12.77;;;;;;;8.94;100.00;100535.25;4991905;28;20038;-77
2022/04/05 01:45:28;;;;;;;28.10;12.68;;;;;;;8.94;100.00;100524.88;4996401;28;20092;-77
2022/04/05 01:47:53;;;;;;;30.63;14.25;;;;;;;8.95;100.00;100530.94;5001761;28;20268;-82
2022/04/05 01:50:18;;;;;;;30.20;12.98;;;;;;;8.95;100.00;100529.25;4995483;28;20020;-82
2022/04/05 01:52:44;;;;;;;31.48;13.20;;;;;;;8.95;100.00;100536.13;5003140;28;20030;-81
2022/04/05 01:55:09;;;;;;;30.52;13.07;;;;;;;8.94;100.00;100522.28;4997626;28;20041;-81
2022/04/05 01:57:35;;;;;;;29.45;12.80;;;;;;;8.94;100.00;100540.47;4993517;28;20018;-81
2022/04/05 02:00:02;;;;;;;34.08;13.52;;;;;;;8.93;100.00;100535.22;4992248;28;20044;-81
2022/04/05 02:02:27;;;;;;;31.50;13.48;;;;;;;8.92;100.00;100534.34;5004157;28;20097;-81
2022/04/05 02:04:53;;;;;;;29.20;13.60;;;;;;;8.92;100.00;100534.34;4995388;28;20018;-82
2022/04/05 02:07:19;;;;;;;28.88;12.90;;;;;;;8.92;100.00;100539.56;4997750;28;20090;-80
2022/04/05 02:09:49;;;;;;;28.50;13.18;;;;;;;8.91;100.00;100529.09;5000300;28;20021;-81
2022/04/05 02:12:18;;;;;;;29.60;12.90;;;;;;;8.92;100.00;100530.84;4987830;28;20029;-81
2022/04/05 02:14:44;;;;;;;25.65;12.63;;;;;;;8.92;100.00;100539.56;4987935;28;20273;-81
2022/04/05 02:17:11;;;;;;;31.08;12.52;;;;;;;8.92;100.00;100538.66;4991588;28;20030;-81
2022/04/05 02:19:38;;;;;;;28.05;12.18;;;;;;;8.93;100.00;100535.22;5000499;28;20253;-81
2022/04/05 02:22:04;;;;;;;27.67;12.38;;;;;;;8.92;100.00;100536.06;5003009;28;20303;-81
2022/04/05 02:24:30;;;;;;;27.70;12.85;;;;;;;8.91;100.00;100537.78;4994261;28;20046;-82
2022/04/05 02:26:55;;;;;;;25.92;12.20;;;;;;;8.93;100.00;100537.81;5003014;28;20033;-82
2022/04/05 02:29:20;;;;;;;24.55;12.20;;;;;;;8.92;100.00;100536.06;5001156;28;20287;-81
2022/04/05 02:31:46;;;;;;;25.60;12.10;;;;;;;8.92;100.00;100536.97;4992285;28;20090;-81
2022/04/05 02:34:11;;;;;;;26.60;11.77;;;;;;;8.91;100.00;100532.59;4996164;28;20184;-82
2022/04/05 02:36:36;;;;;;;23.27;12.15;;;;;;;8.92;100.00;100543.84;4997752;28;20224;-81
2022/04/05 02:39:03;;;;;;;24.30;11.27;;;;;;;8.93;100.00;100545.63;4998101;28;20037;-82
2022/04/05 02:41:28;;;;;;;27.95;12.15;;;;;;;8.93;100.00;100540.44;5002207;28;20153;-81
2022/04/05 02:43:54;;;;;;;24.50;11.32;;;;;;;8.92;100.00;100538.66;4996900;28;20057;-82
2022/04/05 02:46:19;;;;;;;22.90;10.77;;;;;;;8.93;100.00;100543.03;4995437;28;20022;-82
2022/04/05 02:48:46;;;;;;;22.88;10.93;;;;;;;8.92;100.00;100543.84;4995506;28;20141;-82
2022/04/05 02:51:12;;;;;;;24.70;11.98;;;;;;;8.91;100.00;100540.38;5001177;28;20268;-82
2022/04/05 02:53:38;;;;;;;25.33;11.07;;;;;;;8.92;100.00;100538.66;4999938;28;20065;-82
2022/04/05 02:56:04;;;;;;;26.50;11.80;;;;;;;8.90;100.00;100538.63;4994357;28;20026;-82
2022/04/05 02:58:29;;;;;;;25.92;11.15;;;;;;;8.92;100.00;100539.56;4995500;28;20155;-82
2022/04/05 03:00:55;;;;;;;25.08;11.38;;;;;;;8.92;100.00;100530.84;5003196;28;20229;-82
2022/04/05 03:03:21;;;;;;;24.92;11.27;;;;;;;8.92;100.00;100536.06;5005950;28;20026;-82
2022/04/05 03:05:46;;;;;;;24.00;11.63;;;;;;;8.92;100.00;100530.84;4992090;28;20281;-82
2022/04/05 03:08:11;;;;;;;25.63;11.20;;;;;;;8.91;100.00;100535.19;4990687;28;20026;-81
2022/04/05 03:10:37;;;;;;;24.20;11.10;;;;;;;8.91;100.00;100531.69;5002366;28;20257;-81
2022/04/05 03:13:03;;;;;;;25.75;11.70;;;;;;;8.91;100.00;100534.28;4994703;28;20215;-82
2022/04/05 03:15:29;;;;;;;28.27;12.38;;;;;;;8.90;100.00;100538.63;5001433;28;20101;-82
2022/04/05 03:17:55;;;;;;;26.33;11.35;;;;;;;8.90;100.00;100538.63;5000036;28;20257;-82
2022/04/05 03:20:21;;;;;;;21.25;11.20;;;;;;;8.91;100.00;100534.28;4994926;28;20434;-82
2022/04/05 03:22:46;;;;;;;23.75;12.75;;;;;;;8.90;100.00;100542.94;5001935;28;20158;-82
2022/04/05 03:25:12;;;;;;;27.35;12.63;;;;;;;8.90;100.00;100538.63;4998681;28;20276;-82
2022/04/05 03:27:42;;;;;;;29.60;12.38;;;;;;;8.89;100.00;100536.84;4995129;28;20223;-82
2022/04/05 03:30:08;;;;;;;24.80;12.18;;;;;;;8.91;100.00;100540.38;4995180;28;20024;-83
2022/04/05 03:32:34;;;;;;;25.02;11.32;;;;;;;8.92;100.00;100534.34;4990264;28;20280;-81
2022/04/05 03:34:59;;;;;;;25.27;11.93;;;;;;;8.90;100.00;100532.56;4993677;28;20041;-83
2022/04/05 03:37:24;;;;;;;26.73;12.10;;;;;;;8.90;100.00;100530.81;4991226;28;20154;-83
2022/04/05 03:39:50;;;;;;;28.00;12.70;;;;;;;8.90;100.00;100528.22;4997042;28;20280;-82
2022/04/05 03:42:15;;;;;;;25.52;11.48;;;;;;;8.91;100.00;100531.69;4997766;28;20022;-82
2022/04/05 03:44:40;;;;;;;23.27;11.65;;;;;;;8.92;100.00;100530.84;4999338;28;20205;-82
2022/04/05 03:47:06;;;;;;;25.67;11.48;;;;;;;8.91;100.00;100532.59;5003620;28;20216;-83
2022/04/05 03:49:31;;;;;;;24.95;11.35;;;;;;;8.93;100.00;100535.22;4992692;28;20022;-82
2022/04/05 03:51:56;;;;;;;26.08;12.52;;;;;;;8.91;100.00;100529.09;4997708;28;20014;-81
2022/04/05 03:54:22;;;;;;;25.42;11.70;;;;;;;8.93;100.00;100522.22;4998930;28;20162;-82
2022/04/05 03:56:47;;;;;;;29.75;12.23;;;;;;;8.91;100.00;100530.00;4999807;28;20030;-77
2022/04/05 03:59:12;;;;;;;26.77;11.88;;;;;;;8.92;100.00;100536.06;5000802;28;20297;-77
2022/04/05 04:01:37;;;;;;;26.67;11.30;;;;;;;8.93;100.00;100525.69;4995702;28;20030;-76
2022/04/05 04:04:03;;;;;;;23.23;10.75;;;;;;;8.93;100.00;100530.03;4995228;28;20034;-77
2022/04/05 04:06:28;;;;;;;23.65;11.45;;;;;;;8.92;100.00;100517.88;5001064;28;20075;-77
2022/04/05 04:08:53;;;;;;;24.98;10.48;;;;;;;8.93;100.00;100523.09;4997923;28;20015;-77
2022/04/05 04:11:19;;;;;;;27.48;10.95;;;;;;;8.91;100.00;100519.59;4997263;28;20018;-77
2022/04/05 04:13:44;;;;;;;21.92;10.57;;;;;;;8.92;100.00;100525.66;4997420;28;20092;-77
2022/04/05 04:16:09;;;;;;;24.23;10.55;;;;;;;8.90;100.00;100524.75;4999951;28;20018;-77
2022/04/05 04:18:35;;;;;;;23.83;11.15;;;;;;;8.90;100.00;100530.81;4990351;28;20045;-77
2022/04/05 04:21:00;;;;;;;23.42;10.73;;;;;;;8.92;100.00;100530.84;4994462;28;20139;-76
2022/04/05 04:23:25;;;;;;;22.98;11.00;;;;;;;8.91;100.00;100523.91;4992567;28;20106;-76
2022/04/05 04:25:50;;;;;;;23.75;11.45;;;;;;;8.92;100.00;100530.84;4993820;28;20142;-76
2022/04/05 04:28:16;;;;;;;22.98;10.20;;;;;;;8.90;100.00;100527.34;5000197;28;20034;-77
2022/04/05 04:30:41;;;;;;;23.52;10.73;;;;;;;8.90;100.00;100523.03;4992969;28;20026;-77
2022/04/05 04:33:08;;;;;;;25.80;11.52;;;;;;;8.90;100.00;100525.63;4995442;28;20030;-77
2022/04/05 04:35:34;;;;;;;23.83;11.07;;;;;;;8.92;100.00;100530.84;4989324;28;20014;-77
2022/04/05 04:38:00;;;;;;;21.30;9.88;;;;;;;8.91;100.00;100527.41;5002490;28;20257;-77
2022/04/05 04:40:26;;;;;;;24.33;10.60;;;;;;;8.90;100.00;100527.34;4995585;28;20018;-77
2022/04/05 04:42:52;;;;;;;23.75;10.20;;;;;;;8.90;100.00;100525.63;4998419;28;20034;-77
2022/04/05 04:45:17;;;;;;;21.52;10.18;;;;;;;8.90;100.00;100528.22;4993765;28;20037;-77
2022/04/05 04:47:43;;;;;;;22.15;10.77;;;;;;;8.90;100.00;100533.44;4993763;28;20030;-77
2022/04/05 04:50:11;;;;;;;23.77;10.55;;;;;;;8.91;100.00;100529.09;4989045;28;20030;-77
2022/04/05 04:52:36;;;;;;;23.30;10.45;;;;;;;8.90;100.00;100532.56;5001911;28;20018;-77
2022/04/05 04:55:02;;;;;;;21.65;10.07;;;;;;;8.91;100.00;100534.28;4995867;28;20022;-77
2022/04/05 04:57:27;;;;;;;22.23;10.35;;;;;;;8.90;100.00;100538.63;4994567;28;20026;-82
2022/04/05 04:59:53;;;;;;;21.13;10.32;;;;;;;8.90;100.00;100537.75;4988094;28;20026;-82
2022/04/05 05:02:22;;;;;;;23.15;10.82;;;;;;;8.91;100.00;100540.38;4989790;28;20026;-83
2022/04/05 05:04:48;;;;;;;25.92;11.10;;;;;;;8.90;100.00;100538.63;4989094;28;20019;-82
2022/04/05 05:07:14;;;;;;;22.50;10.13;;;;;;;8.90;100.00;100532.56;4990781;28;20030;-83
2022/04/05 05:09:40;;;;;;;22.08;10.77;;;;;;;8.90;100.00;100540.34;4993005;28;20019;-82
2022/04/05 05:12:06;;;;;;;23.55;10.68;;;;;;;8.89;100.00;100536.84;4990027;28;20280;-82
2022/04/05 05:14:31;;;;;;;22.52;11.20;;;;;;;8.91;100.00;100531.69;4991950;28;20010;-82
2022/04/05 05:16:56;;;;;;;22.60;10.30;;;;;;;8.90;100.00;100540.34;4991715;28;20015;-81
2022/04/05 05:19:22;;;;;;;24.20;11.25;;;;;;;8.90;100.00;100541.22;4998103;28;20081;-81
2022/04/05 05:21:48;;;;;;;23.92;11.10;;;;;;;8.90;100.00;100542.94;4992216;28;20031;-83
2022/04/05 05:24:13;;;;;;;22.75;10.30;;;;;;;8.91;100.00;100539.50;4995987;28;20089;-83
2022/04/05 05:26:38;;;;;;;21.58;10.70;;;;;;;8.90;100.00;100545.53;4995997;28;20238;-82
2022/04/05 05:29:04;;;;;;;19.15;9.60;;;;;;;8.90;100.00;100548.16;5003972;28;20273;-82
2022/04/05 05:31:29;;;;;;;20.83;9.88;;;;;;;8.92;100.00;100552.56;5004206;28;20266;-82
2022/04/05 05:33:54;;;;;;;20.17;10.68;;;;;;;8.91;100.00;100548.19;4987595;28;20042;-82
2022/04/05 05:36:20;;;;;;;18.27;9.15;;;;;;;8.94;100.00;100539.59;4999298;28;20216;-83
2022/04/05 05:38:45;;;;;;;21.00;9.90;;;;;;;8.92;100.00;100546.44;4995742;28;20209;-82
2022/04/05 05:41:10;;;;;;;19.90;9.82;;;;;;;8.91;100.00;100550.78;4989861;28;20026;-82
2022/04/05 05:43:37;;;;;;;20.05;10.18;;;;;;;8.91;100.00;100549.88;4991203;28;20084;-82
2022/04/05 05:46:03;;;;;;;22.25;10.73;;;;;;;8.92;100.00;100554.25;4991825;28;20022;-83
2022/04/05 05:48:30;;;;;;;21.02;10.82;;;;;;;8.92;100.00;100557.75;4989282;28;20010;-81
2022/04/05 05:50:55;;;;;;;21.02;9.88;;;;;;;8.93;100.00;100556.00;4993781;28;20401;-83
2022/04/05 05:53:21;;;;;;;23.95;11.60;;;;;;;8.93;100.00;100561.22;4990340;28;20015;-82
2022/04/05 05:55:48;;;;;;;25.25;11.82;;;;;;;8.93;100.00;100561.22;4995281;28;20339;-82
2022/04/05 05:58:13;;;;;;;27.92;10.68;;;;;;;8.92;100.00;100565.53;4999109;28;20046;-81
2022/04/05 06:00:39;;;;;;;24.25;10.63;;;;;;;8.93;100.00;100566.41;4993559;28;20014;-82
2022/04/05 06:03:04;;;;;;;24.17;11.73;;;;;;;8.94;100.00;100568.19;4997715;28;20022;-82
2022/04/05 06:05:30;;;;;;;23.38;11.20;;;;;;;8.92;100.00;100573.34;4991778;28;20041;-82
2022/04/05 06:07:56;;;;;;;21.45;10.65;;;;;;;8.92;100.00;100572.44;4994135;28;20038;-82
2022/04/05 06:10:22;;;;;;;22.25;11.07;;;;;;;8.92;100.00;100570.75;4993732;28;20022;-82
2022/04/05 06:12:49;;;;;;;26.20;12.20;;;;;;;8.92;100.00;100570.75;4987553;28;20288;-81
2022/04/05 06:15:17;;;;;;;25.08;11.85;;;;;;;8.92;100.00;100572.44;5000094;28;20164;-82
2022/04/05 06:17:44;;;;;;;25.73;11.68;;;;;;;8.93;100.00;100571.59;4994993;28;20054;-82
2022/04/05 06:20:13;;;;;;;25.67;11.27;;;;;;;8.93;100.00;100575.06;5002081;28;20037;-82
2022/04/05 06:22:57;;;;;;;25.53;11.00;;;;;;;8.93;100.00;100569.88;5001722;28;20014;-82
2022/04/05 06:25:34;;;;;;;27.40;11.18;;;;;;;8.95;100.00;100577.72;4997490;28;20010;-82
2022/04/05 06:28:02;;;;;;;27.92;11.82;;;;;;;8.95;100.00;100582.91;4996353;28;20102;-81
2022/04/05 06:30:28;;;;;;;26.27;11.95;;;;;;;8.96;100.00;100582.06;5000138;28;20029;-81
2022/04/05 06:33:10;;;;;;;23.75;10.73;;;;;;;8.96;100.00;100579.47;4991342;28;20313;-82
2022/04/05 06:35:44;;;;;;;27.38;11.93;;;;;;;8.97;100.00;100586.44;4996274;28;20014;-82
2022/04/05 06:38:10;;;;;;;24.80;10.88;;;;;;;8.97;100.00;100591.63;5013982;28;20084;-82
2022/04/05 06:40:35;;;;;;;25.42;11.07;;;;;;;8.99;100.00;100595.16;4998859;28;20030;-81
2022/04/05 06:43:01;;;;;;;26.15;11.50;;;;;;;9.00;100.00;100589.13;4998539;28;20050;-82
2022/04/05 06:45:27;;;;;;;25.58;11.43;;;;;;;9.02;100.00;100595.22;4995429;28;20156;-81
2022/04/05 06:47:53;;;;;;;23.35;10.95;;;;;;;9.04;100.00;100590.97;4998900;28;20038;-82
2022/04/05 06:50:24;;;;;;;22.60;10.45;;;;;;;9.07;100.00;100593.63;5004001;28;20220;-83
2022/04/05 06:52:51;;;;;;;22.85;10.82;;;;;;;9.08;100.00;100598.00;5001755;28;20018;-82
2022/04/05 06:55:16;;;;;;;21.55;10.25;;;;;;;9.11;100.00;100600.66;4996607;28;20030;-82
2022/04/05 06:57:42;;;;;;;22.80;10.20;;;;;;;9.10;100.00;100604.09;5000254;28;20038;-82
2022/04/05 07:00:09;;;;;;;18.25;9.25;;;;;;;9.11;100.00;100600.66;5003024;28;20181;-81
2022/04/05 07:02:35;;;;;;;21.63;9.27;;;;;;;9.13;100.00;100605.91;5004574;28;20045;-80
2022/04/05 07:05:00;;;;;;;22.85;9.15;;;;;;;9.12;100.00;100604.13;5004467;28;20257;-81
2022/04/05 07:07:26;;;;;;;19.85;8.80;;;;;;;9.14;100.00;100610.25;5006062;28;20064;-82
2022/04/05 07:09:51;;;;;;;21.52;8.88;;;;;;;9.13;100.00;100611.09;4999361;28;20165;-81
2022/04/05 07:12:17;;;;;;;20.50;9.48;;;;;;;9.12;100.00;100607.59;5001602;28;20029;-82
2022/04/05 07:14:42;;;;;;;20.80;9.15;;;;;;;9.10;100.00;100614.50;4997645;28;20054;-83
2022/04/05 07:17:08;;;;;;;20.70;8.93;;;;;;;9.11;100.00;100615.38;5005179;28;20320;-81
2022/04/05 07:19:33;;;;;;;22.90;8.63;;;;;;;9.10;100.00;100613.63;4998835;28;20035;-82
2022/04/05 07:21:59;;;;;;;17.88;8.93;;;;;;;9.10;100.00;100619.69;5001709;28;20323;-82
2022/04/05 07:24:26;;;;;;;22.58;8.57;;;;;;;9.09;100.00;100604.94;5004836;28;20018;-83
2022/04/05 07:26:51;;;;;;;21.00;8.75;;;;;;;9.09;100.00;100607.53;5002216;28;20044;-82
2022/04/05 07:29:16;;;;;;;21.25;9.18;;;;;;;9.09;100.00;100604.94;4997671;28;20256;-82
2022/04/05 07:31:42;;;;;;;20.85;9.13;;;;;;;9.11;100.00;100595.47;5003601;28;20014;-82
2022/04/05 07:34:07;;;;;;;20.83;8.55;;;;;;;9.12;100.00;100598.94;4989685;28;20172;-81
2022/04/05 07:36:32;;;;;;;19.67;8.40;;;;;;;9.13;100.00;100598.97;5004145;28;20226;-77
2022/04/05 07:38:58;;;;;;;18.95;8.18;;;;;;;9.14;100.00;100598.16;5005577;28;20029;-76
2022/04/05 07:41:24;;;;;;;17.73;8.00;;;;;;;9.14;99.93;100592.94;4999882;28;20022;-76
2022/04/05 07:43:49;;;;;;;19.90;7.75;;;;;;;9.16;99.73;100604.25;4995211;28;20018;-76
2022/04/05 07:46:14;;;;;;;16.38;7.60;;;;;;;9.18;99.62;100597.38;5004801;28;20030;-69
2022/04/05 07:48:40;;;;;;;17.27;8.20;;;;;;;9.20;99.49;100600.03;5005587;28;20038;-70
2022/04/05 07:51:06;;;;;;;15.77;7.57;;;;;;;9.20;99.24;100600.91;5005341;28;20022;-70
2022/04/05 07:53:31;;;;;;;16.20;7.90;;;;;;;9.21;99.48;100597.47;5005727;28;20021;-69
2022/04/05 07:55:57;;;;;;;20.35;8.20;;;;;;;9.23;99.18;100611.38;5004283;28;20053;-70
2022/04/05 07:58:23;;;;;;;18.10;7.78;;;;;;;9.24;99.27;100614.88;5005715;28;20150;-69
2022/04/05 08:00:48;;;;;;;18.05;7.85;;;;;;;9.25;99.33;100607.94;5005070;28;20022;-70
2022/04/05 08:03:14;;;;;;;18.70;8.43;;;;;;;9.26;99.23;100604.50;5005666;28;20026;-70
2022/04/05 08:05:41;;;;;;;19.45;7.75;;;;;;;9.28;99.13;100608.00;5005349;28;20072;-70
2022/04/05 08:08:06;;;;;;;17.30;7.53;;;;;;;9.29;99.27;100607.19;5005373;28;20037;-77
2022/04/05 08:10:32;;;;;;;16.55;8.02;;;;;;;9.30;98.97;100612.41;5005263;28;20041;-77
2022/04/05 08:12:57;;;;;;;17.95;8.02;;;;;;;9.31;99.12;100608.97;5005466;28;20291;-77
2022/04/05 08:15:23;;;;;;;16.23;7.80;;;;;;;9.33;98.63;100607.28;5003802;28;20066;-77
2022/04/05 08:17:50;;;;;;;16.95;7.80;;;;;;;9.33;98.79;100609.00;5004682;28;20038;-77
2022/04/05 08:20:16;;;;;;;18.05;7.35;;;;;;;9.34;98.62;100614.25;5004943;28;20018;-77
2022/04/05 08:22:42;;;;;;;15.52;7.25;;;;;;;9.36;99.05;100609.09;5004884;28;20052;-77
2022/04/05 08:25:08;;;;;;;14.35;7.07;;;;;;;9.37;98.70;100616.03;5005075;28;20026;-77
2022/04/05 08:27:34;;;;;;;16.60;7.63;;;;;;;9.38;98.86;100615.19;5005150;28;20022;-76
2022/04/05 08:30:00;;;;;;;15.23;6.93;;;;;;;9.39;98.80;100619.56;4996564;28;20045;-77
2022/04/05 08:32:26;;;;;;;20.67;8.13;;;;;;;9.41;98.49;100617.84;4996063;28;20259;-77
2022/04/05 08:34:52;;;;;;;15.60;7.65;;;;;;;9.43;98.44;100617.91;5004989;28;20153;-76
2022/04/05 08:37:17;;;;;;;20.25;7.70;;;;;;;9.47;98.37;100627.53;5005012;28;20307;-77
2022/04/05 08:39:43;;;;;;;16.63;7.75;;;;;;;9.49;98.95;100624.13;5004618;28;20032;-77
2022/04/05 08:42:08;;;;;;;18.50;7.97;;;;;;;9.53;98.97;100628.56;5003461;28;20296;-76
2022/04/05 08:44:34;;;;;;;17.52;7.30;;;;;;;9.57;98.70;100627.81;5005004;28;20041;-77
2022/04/05 08:47:01;;;;;;;14.32;7.13;;;;;;;9.59;98.46;100625.25;5004709;28;20022;-77
2022/04/05 08:49:28;;;;;;;17.73;7.93;;;;;;;9.62;98.30;100630.53;5004616;28;20040;-76
2022/04/05 08:51:54;;;;;;;13.98;6.97;;;;;;;9.65;98.58;100629.72;5004650;28;20261;-76
2022/04/05 08:54:20;;;;;;;15.70;7.50;;;;;;;9.66;98.54;100624.56;5002500;28;20018;-75
2022/04/05 08:56:47;;;;;;;15.02;7.93;;;;;;;9.67;98.22;100628.88;5004438;28;20026;-76
2022/04/05 08:59:12;;;;;;;16.88;7.47;;;;;;;9.70;98.22;100638.50;5004632;28;20090;-76
2022/04/05 09:01:38;;;;;;;15.40;7.80;;;;;;;9.71;98.06;100632.47;5004445;28;20111;-76
2022/04/05 09:04:04;;;;;;;16.58;7.32;;;;;;;9.73;97.74;100633.38;5004086;28;20026;-76
2022/04/05 09:06:31;;;;;;;14.68;7.10;;;;;;;9.74;97.98;100629.94;5004441;28;20265;-77
2022/04/05 09:09:10;;;;;;;14.45;6.93;;;;;;;9.78;97.60;100630.91;5004412;28;20038;-76
2022/04/05 09:11:36;;;;;;;;;;;;;;;9.84;97.21;100636.22;5004605;28;20089;-77
2022/04/05 09:14:03;;;;;;;15.63;6.82;;;;;;;9.83;97.70;100640.53;5004291;28;19948;-77
2022/04/05 09:16:32;;;;;;;13.50;7.65;;;;;;;9.85;97.37;100645.81;5004528;28;20018;-76
2022/04/05 09:19:09;;;;;;;16.67;7.32;;;;;;;9.85;97.95;100638.00;5004191;28;20173;-76
2022/04/05 09:21:50;;;;;;;14.57;7.32;;;;;;;9.86;97.77;100640.63;5004246;28;20021;-76
2022/04/05 09:24:15;;;;;;;15.38;7.40;;;;;;;9.88;98.19;100638.94;5004218;28;20344;-76
2022/04/05 09:26:43;;;;;;;16.38;7.97;;;;;;;9.89;98.06;100643.31;5004134;28;20288;-76
2022/04/05 09:29:08;;;;;;;15.18;7.72;;;;;;;9.90;98.28;100639.84;5004167;28;20212;-77
2022/04/05 09:31:49;;;;;;;15.52;7.43;;;;;;;9.92;98.41;100651.19;5004197;28;20022;-75
2022/04/05 09:34:19;;;;;;;15.38;7.90;;;;;;;9.96;98.35;100641.69;5004171;28;20276;-76
2022/04/05 09:36:48;;;;;;;15.05;7.55;;;;;;;9.98;98.11;100652.16;5004205;28;20037;-69
2022/04/05 09:39:17;;;;;;;17.30;8.68;;;;;;;9.99;97.96;100651.31;5004169;28;20022;-69
2022/04/05 09:41:43;;;;;;;15.18;8.30;;;;;;;10.00;98.41;100648.75;5003930;28;20026;-69
2022/04/05 09:44:08;;;;;;;16.92;7.47;;;;;;;10.00;98.23;100658.28;5003934;28;20062;-69
2022/04/05 09:46:36;;;;;;;16.08;8.15;;;;;;;10.00;98.38;100658.28;5004189;28;20026;-70
2022/04/05 09:49:12;;;;;;;17.45;8.00;;;;;;;9.99;99.29;100653.91;5003969;28;20026;-69
2022/04/05 09:51:45;;;;;;;16.40;8.15;;;;;;;10.00;99.57;100653.06;5004151;28;20045;-69
2022/04/05 09:54:27;;;;;;;15.63;8.02;;;;;;;10.03;99.35;100658.34;5003569;28;20026;-69
2022/04/05 09:56:59;;;;;;;18.88;7.90;;;;;;;10.06;99.74;100658.41;5004015;28;20057;-69
2022/04/05 09:59:25;;;;;;;18.08;8.45;;;;;;;10.10;99.95;100655.03;5003780;28;20022;-69
2022/04/05 10:01:52;;;;;;;14.40;7.20;;;;;;;10.14;99.91;100656.88;4997979;28;20288;-69
2022/04/05 10:04:18;;;;;;;18.63;8.18;;;;;;;10.19;99.96;100656.97;4995893;28;20026;-69
2022/04/05 10:06:48;;;;;;;15.27;7.18;;;;;;;10.23;100.00;100657.06;5004875;28;20018;-69
2022/04/05 10:09:15;;;;;;;14.93;7.93;;;;;;;10.24;99.94;100660.56;5007218;28;20269;-69
2022/04/05 10:11:42;;;;;;;14.88;8.40;;;;;;;10.24;99.83;100655.34;5007540;28;20276;-69
2022/04/05 10:14:11;;;;;;;14.00;7.82;;;;;;;10.27;100.00;100663.22;5007445;28;20028;-69
2022/04/05 10:16:37;;;;;;;13.40;7.50;;;;;;;10.30;99.39;100660.69;5007628;28;20025;-69
2022/04/05 10:19:05;;;;;;;15.02;7.70;;;;;;;10.31;99.39;100656.34;5006185;28;20177;-69
2022/04/05 10:21:36;;;;;;;15.13;7.68;;;;;;;10.32;99.37;100663.31;5007372;28;20018;-69
2022/04/05 10:24:06;;;;;;;11.32;6.95;;;;;;;10.34;99.09;100664.25;5006970;28;20018;-69
2022/04/05 10:26:35;;;;;;;14.10;7.53;;;;;;;10.34;98.50;100659.94;5007048;28;20289;-69
2022/04/05 10:29:06;;;;;;;15.10;7.75;;;;;;;10.35;98.51;100666.03;5007108;28;20041;-69
2022/04/05 10:32:02;;;;;;;16.17;7.25;;;;;;;10.35;98.52;100661.69;5007271;28;20085;-69
2022/04/05 10:34:34;;;;;;;14.95;7.40;;;;;;;10.36;98.45;100659.97;5006977;28;20026;-69
2022/04/05 10:37:18;;;;;;;13.00;6.88;;;;;;;10.36;97.60;100655.63;4998885;28;20042;-70
2022/04/05 10:40:10;;;;;;;14.07;7.25;;;;;;;10.39;98.16;100657.44;5006834;28;20038;-69
2022/04/05 10:42:38;;;;;;;13.95;6.95;;;;;;;10.40;98.02;100656.59;5005813;28;20090;-69
2022/04/05 10:45:25;;;;;;;12.38;6.57;;;;;;;10.42;97.79;100657.50;5005678;28;20013;-69
2022/04/05 10:48:20;;;;;;;15.25;7.18;;;;;;;10.41;97.44;100661.84;5006982;28;20034;-77
2022/04/05 10:51:00;;;;;;;13.40;6.90;;;;;;;10.43;97.15;100660.13;5007008;28;20041;-76
2022/04/05 10:53:32;;;;;;;14.05;6.60;;;;;;;10.43;96.77;100654.06;4997944;28;20034;-76
2022/04/05 10:56:03;;;;;;;14.15;6.57;;;;;;;10.45;97.07;100652.34;5006525;28;20025;-75
2022/04/05 10:58:52;;;;;;;12.13;6.60;;;;;;;10.47;96.69;100653.28;5005572;28;20158;-76
2022/04/05 11:01:39;;;;;;;13.10;7.05;;;;;;;10.49;95.95;100651.56;5006025;28;20242;-76
2022/04/05 11:04:15;;;;;;;14.35;6.30;;;;;;;10.52;96.07;100654.22;5006488;28;20046;-77
2022/04/05 11:06:58;;;;;;;11.88;6.47;;;;;;;10.52;95.85;100659.44;5000087;28;20021;-77
2022/04/05 11:09:39;;;;;;;10.98;6.47;;;;;;;10.54;96.03;100649.06;5005903;28;20276;-77
2022/04/05 11:12:10;;;;;;;12.82;6.93;;;;;;;10.57;97.22;100651.72;5006540;28;20049;-76
2022/04/05 11:14:42;;;;;;;13.13;6.25;;;;;;;10.60;96.60;100657.88;5006255;28;20022;-76